Time;durP1;ratioP1;P1;durP2;ratioP2;P2;SDS_P1;SDS_P2;PMS_P1;PMS_P2;Temp;Humidity;BMP_temperature;BMP_pressure;BME280_temperature;BME280_humidity;BME280_pressure;Samples;Min_cycle;Max_cycle;Signal;HPM_P1;HPM_P2
2022/08/19 00:01:23;;;;;;;7.10;6.40;;;18.60;99.90;;;;;;5101872;28;20208;-86
2022/08/19 00:03:50;;;;;;;6.40;5.53;;;18.60;99.90;;;;;;5113596;28;20208;-86
2022/08/19 00:06:28;;;;;;;5.80;5.30;;;18.70;99.90;;;;;;5114186;28;20210;-86
2022/08/19 00:08:56;;;;;;;6.22;5.63;;;18.70;99.90;;;;;;5114716;27;20204;-87
2022/08/19 00:11:23;;;;;;;6.07;5.50;;;18.60;99.90;;;;;;5113649;28;20196;-86
2022/08/19 00:13:52;;;;;;;6.47;5.43;;;18.60;99.90;;;;;;5112946;28;20208;-86
2022/08/19 00:16:20;;;;;;;5.40;4.90;;;18.60;99.90;;;;;;5109803;28;20201;-86
2022/08/19 00:18:47;;;;;;;5.95;5.45;;;18.50;99.90;;;;;;5105596;28;20270;-86
2022/08/19 00:21:20;;;;;;;7.63;7.03;;;18.50;99.90;;;;;;5110103;28;20219;-86
2022/08/19 00:23:48;;;;;;;6.45;5.60;;;18.50;99.90;;;;;;5110352;28;20208;-87
2022/08/19 00:26:19;;;;;;;7.05;5.93;;;18.60;99.90;;;;;;5110555;28;20627;-86
2022/08/19 00:28:46;;;;;;;6.30;5.70;;;18.60;99.90;;;;;;5106846;28;20211;-86
2022/08/19 00:31:24;;;;;;;8.73;6.60;;;18.60;99.90;;;;;;5112198;28;20200;-86
2022/08/19 00:33:51;;;;;;;7.57;6.80;;;18.60;99.90;;;;;;5108085;28;20210;-86
2022/08/19 00:36:22;;;;;;;6.40;5.78;;;18.60;99.90;;;;;;5111109;28;20211;-86
2022/08/19 00:38:51;;;;;;;9.43;8.50;;;18.60;99.90;;;;;;5113963;28;20224;-86
2022/08/19 00:41:21;;;;;;;6.20;5.60;;;18.70;99.90;;;;;;5115671;28;20740;-86
2022/08/19 00:43:59;;;;;;;6.82;6.22;;;18.70;99.90;;;;;;5112895;28;20211;-86
2022/08/19 00:46:28;;;;;;;8.07;6.60;;;18.80;99.90;;;;;;5098068;28;20257;-87
2022/08/19 00:48:58;;;;;;;7.05;6.32;;;18.80;99.90;;;;;;5099635;28;20196;-86
2022/08/19 00:51:26;;;;;;;7.28;6.40;;;18.70;99.90;;;;;;5102078;28;20192;-86
2022/08/19 00:53:53;;;;;;;6.45;5.85;;;18.70;99.90;;;;;;5109622;28;20200;-86
2022/08/19 00:56:20;;;;;;;6.95;6.25;;;18.70;99.90;;;;;;5107747;28;20206;-86
2022/08/19 00:58:55;;;;;;;12.60;8.60;;;18.60;99.90;;;;;;5114954;28;20597;-86
2022/08/19 01:01:23;;;;;;;12.77;8.98;;;18.60;99.90;;;;;;5108284;28;20203;-86
2022/08/19 01:03:53;;;;;;;25.55;15.27;;;18.60;99.90;;;;;;5110821;27;20210;-86
2022/08/19 01:06:20;;;;;;;31.17;18.05;;;18.50;99.90;;;;;;5114603;28;20200;-86
2022/08/19 01:08:51;;;;;;;8.45;7.05;;;18.60;99.90;;;;;;5104367;28;20206;-86
2022/08/19 01:11:18;;;;;;;6.97;6.28;;;18.50;99.90;;;;;;5100118;28;20205;-86
2022/08/19 01:13:47;;;;;;;10.57;8.13;;;18.50;99.90;;;;;;5100278;28;20200;-86
2022/08/19 01:16:15;;;;;;;7.90;7.07;;;18.40;99.90;;;;;;5096621;28;20261;-86
2022/08/19 01:18:43;;;;;;;12.45;7.72;;;18.40;99.90;;;;;;5101368;28;20224;-86
2022/08/19 01:21:17;;;;;;;7.85;7.10;;;18.40;99.90;;;;;;5112427;28;20196;-86
2022/08/19 01:23:46;;;;;;;8.18;7.28;;;18.40;99.90;;;;;;5113455;27;20663;-86
2022/08/19 01:26:15;;;;;;;9.77;7.93;;;18.50;99.90;;;;;;5110291;28;20208;-86
2022/08/19 01:28:44;;;;;;;8.80;7.90;;;18.50;99.90;;;;;;5111871;28;20199;-86
2022/08/19 01:31:13;;;;;;;7.95;7.15;;;18.60;99.90;;;;;;5112356;28;20566;-86
2022/08/19 01:33:40;;;;;;;8.48;7.65;;;18.70;99.90;;;;;;5109227;28;20662;-86
2022/08/19 01:36:11;;;;;;;7.97;7.25;;;18.70;99.90;;;;;;5112168;28;20212;-86
2022/08/19 01:38:39;;;;;;;9.02;7.55;;;18.80;99.90;;;;;;5113368;28;20223;-86
2022/08/19 01:41:12;;;;;;;8.55;7.60;;;18.80;99.90;;;;;;5107298;28;20207;-86
2022/08/19 01:43:39;;;;;;;8.80;7.68;;;18.70;99.90;;;;;;5112895;28;20258;-86
2022/08/19 01:46:06;;;;;;;8.63;7.53;;;18.60;99.90;;;;;;5111428;28;20210;-86
2022/08/19 01:48:38;;;;;;;8.48;7.30;;;18.60;99.90;;;;;;5114179;28;20192;-86
2022/08/19 01:51:06;;;;;;;8.63;7.70;;;18.70;99.90;;;;;;5107336;28;20212;-86
2022/08/19 01:53:34;;;;;;;8.15;7.35;;;18.70;99.90;;;;;;5107066;28;20576;-86
2022/08/19 01:56:05;;;;;;;7.20;6.50;;;18.70;99.90;;;;;;5116280;28;20260;-86
2022/08/19 01:58:38;;;;;;;6.88;6.28;;;18.80;99.90;;;;;;5114707;28;20223;-86
2022/08/19 02:01:06;;;;;;;7.93;7.20;;;18.70;99.90;;;;;;5114328;28;20742;-87
2022/08/19 02:03:37;;;;;;;8.38;6.90;;;18.70;99.90;;;;;;5110658;28;20678;-87
2022/08/19 02:06:05;;;;;;;7.05;6.32;;;18.70;99.90;;;;;;5113491;28;20239;-86
2022/08/19 02:08:36;;;;;;;8.02;7.22;;;18.70;99.90;;;;;;5113572;28;20203;-86
2022/08/19 02:11:04;;;;;;;7.38;6.70;;;18.70;99.90;;;;;;5112110;28;20666;-86
2022/08/19 02:13:34;;;;;;;7.70;7.00;;;18.60;99.90;;;;;;5112348;28;20200;-86
2022/08/19 02:16:04;;;;;;;7.03;6.13;;;18.60;99.90;;;;;;5113375;28;20243;-86
2022/08/19 02:18:31;;;;;;;7.25;6.55;;;18.70;99.90;;;;;;5109941;28;20286;-86
2022/08/19 02:20:58;;;;;;;7.30;6.70;;;18.60;99.90;;;;;;5113567;28;20738;-86
2022/08/19 02:23:27;;;;;;;7.13;6.43;;;18.50;99.90;;;;;;5113183;28;20235;-86
2022/08/19 02:25:54;;;;;;;8.35;6.40;;;18.40;99.90;;;;;;5107989;28;20604;-86
2022/08/19 02:28:28;;;;;;;7.57;6.82;;;18.50;99.90;;;;;;5110732;28;20215;-86
2022/08/19 02:30:56;;;;;;;6.72;6.13;;;18.50;99.90;;;;;;5112704;28;20207;-86
2022/08/19 02:33:34;;;;;;;6.57;5.85;;;18.50;99.90;;;;;;5113387;28;20207;-86
2022/08/19 02:36:03;;;;;;;6.57;5.97;;;18.50;99.90;;;;;;5107434;28;20697;-86
2022/08/19 02:38:29;;;;;;;6.63;6.00;;;18.50;99.90;;;;;;5108387;28;20204;-86
2022/08/19 02:41:01;;;;;;;7.55;5.85;;;18.50;99.90;;;;;;5109233;28;20588;-86
2022/08/19 02:43:29;;;;;;;6.55;5.95;;;18.40;99.90;;;;;;5111925;28;20655;-86
2022/08/19 02:46:13;;;;;;;6.32;5.65;;;18.40;99.90;;;;;;5102464;28;20200;-86
2022/08/19 02:48:51;;;;;;;9.68;5.60;;;18.50;99.90;;;;;;5113306;28;20776;-86
2022/08/19 02:51:19;;;;;;;7.28;5.63;;;18.50;99.90;;;;;;5114273;28;20203;-86
2022/08/19 02:53:46;;;;;;;6.47;5.68;;;18.60;99.90;;;;;;5116453;27;20204;-87
2022/08/19 02:56:14;;;;;;;6.70;5.25;;;18.50;99.90;;;;;;5109517;28;20200;-87
2022/08/19 02:58:41;;;;;;;5.80;5.30;;;18.50;99.90;;;;;;5116727;28;20204;-86
2022/08/19 03:01:10;;;;;;;5.70;5.10;;;18.50;99.90;;;;;;5116678;28;20196;-86
2022/08/19 03:03:38;;;;;;;5.75;5.22;;;18.50;99.90;;;;;;5103822;28;20196;-86
2022/08/19 03:06:08;;;;;;;6.47;5.88;;;18.40;99.90;;;;;;5116637;28;20287;-86
2022/08/19 03:08:34;;;;;;;6.53;5.53;;;18.50;99.90;;;;;;5104817;28;20208;-86
2022/08/19 03:11:02;;;;;;;6.05;5.45;;;18.60;99.90;;;;;;5114897;28;20196;-86
2022/08/19 03:13:32;;;;;;;6.60;6.00;;;18.50;99.90;;;;;;5114640;28;20200;-86
2022/08/19 03:15:59;;;;;;;7.22;5.63;;;18.50;99.90;;;;;;5114910;28;20207;-86
2022/08/19 03:18:27;;;;;;;7.30;6.05;;;18.50;99.90;;;;;;5116556;28;20650;-86
2022/08/19 03:20:54;;;;;;;5.82;5.18;;;18.50;99.90;;;;;;5117327;28;20230;-86
2022/08/19 03:23:23;;;;;;;6.32;5.72;;;18.60;99.90;;;;;;5115887;28;20188;-86
2022/08/19 03:25:53;;;;;;;6.22;5.15;;;18.70;99.80;;;;;;5108748;28;20312;-86
2022/08/19 03:28:21;;;;;;;6.10;5.50;;;18.70;99.50;;;;;;5099519;28;20199;-86
2022/08/19 03:31:03;;;;;;;6.28;5.50;;;18.70;99.10;;;;;;5105431;28;20200;-86
2022/08/19 03:33:32;;;;;;;6.10;5.60;;;18.60;99.50;;;;;;5102983;28;20192;-87
2022/08/19 03:36:06;;;;;;;6.25;4.80;;;18.60;99.90;;;;;;5115878;28;20195;-86
2022/08/19 03:38:41;;;;;;;5.75;5.25;;;18.50;99.90;;;;;;5115950;28;20566;-86
2022/08/19 03:41:13;;;;;;;6.18;5.57;;;18.50;99.90;;;;;;5115727;28;20225;-86
2022/08/19 03:43:41;;;;;;;5.85;5.35;;;18.50;99.90;;;;;;5115531;28;20653;-86
2022/08/19 03:46:10;;;;;;;6.93;5.63;;;18.50;99.90;;;;;;5105423;28;20196;-86
2022/08/19 03:48:44;;;;;;;6.00;5.40;;;18.50;99.80;;;;;;5102826;28;20211;-86
2022/08/19 03:51:17;;;;;;;8.27;5.63;;;18.40;99.90;;;;;;5098473;28;20227;-86
2022/08/19 03:53:44;;;;;;;7.13;6.18;;;18.40;99.90;;;;;;5109808;28;20206;-86
2022/08/19 03:56:12;;;;;;;6.47;5.88;;;18.50;99.90;;;;;;5110071;28;20201;-86
2022/08/19 03:58:40;;;;;;;7.38;5.85;;;18.40;99.90;;;;;;5102485;28;20199;-86
2022/08/19 04:01:09;;;;;;;5.53;5.03;;;18.40;99.90;;;;;;5111871;28;20306;-86
2022/08/19 04:03:37;;;;;;;5.97;5.40;;;18.50;99.90;;;;;;5110777;28;20201;-86
2022/08/19 04:06:12;;;;;;;6.22;5.63;;;18.60;99.90;;;;;;5115009;28;20613;-86
2022/08/19 04:08:55;;;;;;;6.43;5.82;;;18.60;99.50;;;;;;5115547;28;20199;-86
2022/08/19 04:11:26;;;;;;;5.82;5.18;;;18.60;99.50;;;;;;5110619;28;20678;-86
2022/08/19 04:13:54;;;;;;;5.70;5.20;;;18.70;99.40;;;;;;5113349;28;20200;-86
2022/08/19 04:16:23;;;;;;;5.22;4.82;;;18.70;99.70;;;;;;5111683;28;20208;-86
2022/08/19 04:18:50;;;;;;;5.70;5.20;;;18.80;99.50;;;;;;5115024;28;20200;-86
2022/08/19 04:21:26;;;;;;;5.97;5.40;;;18.90;98.80;;;;;;5111919;28;20727;-86
2022/08/19 04:23:54;;;;;;;9.43;6.57;;;19.00;98.70;;;;;;5107274;28;20195;-86
2022/08/19 04:30:14;;;;;;;6.65;5.50;;;18.90;99.30;;;;;;5108026;28;20203;-86
2022/08/19 04:32:43;;;;;;;7.75;6.55;;;18.80;99.00;;;;;;5088395;28;20203;-86
2022/08/19 04:35:10;;;;;;;7.28;6.35;;;18.80;99.30;;;;;;5104552;28;20352;-86
2022/08/19 04:37:39;;;;;;;5.97;5.38;;;18.70;99.40;;;;;;5117164;28;20192;-86
2022/08/19 04:42:53;;;;;;;5.97;5.47;;;18.70;99.60;;;;;;5106671;28;20562;-86
2022/08/19 04:45:22;;;;;;;6.93;6.22;;;18.70;99.80;;;;;;5114360;28;20698;-86
2022/08/19 04:47:49;;;;;;;6.70;6.00;;;18.90;99.20;;;;;;5097759;28;20570;-86
2022/08/19 04:50:16;;;;;;;6.28;5.68;;;18.90;98.90;;;;;;5109868;28;20203;-86
2022/08/19 04:52:44;;;;;;;7.55;6.57;;;19.00;98.50;;;;;;5114411;28;20206;-86
2022/08/19 04:55:12;;;;;;;6.82;6.13;;;19.00;98.70;;;;;;5113069;28;20206;-87
2022/08/19 04:57:39;;;;;;;6.45;5.85;;;19.00;98.80;;;;;;5114619;28;20293;-86
2022/08/19 05:00:08;;;;;;;6.07;5.50;;;19.00;98.20;;;;;;5114257;28;20694;-86
2022/08/19 05:02:35;;;;;;;6.65;6.05;;;19.00;98.50;;;;;;5114638;28;20547;-86
2022/08/19 05:05:01;;;;;;;6.15;5.55;;;19.00;98.40;;;;;;5112938;28;20208;-86
2022/08/19 05:07:29;;;;;;;8.20;5.13;;;18.90;99.00;;;;;;5116323;28;20192;-86
2022/08/19 05:09:57;;;;;;;7.65;5.47;;;18.90;99.20;;;;;;5114555;28;20215;-86
2022/08/19 05:12:28;;;;;;;6.82;6.00;;;18.90;98.90;;;;;;5115003;28;20199;-86
2022/08/19 05:15:08;;;;;;;5.93;5.32;;;18.90;99.10;;;;;;5113962;27;20227;-83
2022/08/19 05:17:35;;;;;;;6.25;5.65;;;18.80;99.10;;;;;;5108065;28;20260;-83
2022/08/19 05:22:52;;;;;;;6.32;5.65;;;18.80;99.30;;;;;;5103017;28;20206;-83
2022/08/19 05:25:35;;;;;;;6.15;5.53;;;18.80;99.60;;;;;;5115452;28;20202;-83
2022/08/19 05:28:04;;;;;;;6.47;5.88;;;18.80;99.50;;;;;;5116203;28;20259;-83
2022/08/19 05:30:32;;;;;;;6.70;5.93;;;18.70;99.60;;;;;;5115739;28;20200;-83
2022/08/19 05:32:59;;;;;;;9.45;5.93;;;18.70;99.90;;;;;;5115085;28;20607;-83
2022/08/19 05:35:25;;;;;;;5.80;5.30;;;18.70;99.90;;;;;;5101472;28;20639;-83
2022/08/19 05:37:54;;;;;;;7.25;5.90;;;18.80;99.70;;;;;;5104851;28;20695;-86
2022/08/19 05:40:21;;;;;;;7.30;5.30;;;18.80;99.60;;;;;;5100619;28;20495;-86
2022/08/19 05:42:49;;;;;;;9.63;5.90;;;18.80;99.20;;;;;;5113378;28;20200;-86
2022/08/19 05:45:22;;;;;;;6.25;5.75;;;18.70;99.40;;;;;;5099754;28;20246;-87
2022/08/19 05:47:49;;;;;;;5.65;5.13;;;18.70;99.80;;;;;;5095497;28;20204;-86
2022/08/19 05:50:17;;;;;;;6.22;5.63;;;18.60;99.80;;;;;;5108906;28;20565;-86
2022/08/19 05:52:44;;;;;;;8.07;5.65;;;18.70;99.90;;;;;;5106943;28;20197;-86
2022/08/19 05:55:11;;;;;;;7.03;5.78;;;18.70;99.90;;;;;;5107565;28;20207;-86
2022/08/19 05:57:38;;;;;;;7.82;6.75;;;18.70;99.90;;;;;;5102835;28;20203;-86
2022/08/19 06:00:10;;;;;;;6.80;5.97;;;18.70;99.90;;;;;;5108538;28;20277;-86
2022/08/19 06:02:37;;;;;;;9.32;6.78;;;18.80;99.90;;;;;;5117293;28;20197;-86
2022/08/19 06:05:06;;;;;;;7.28;6.57;;;18.90;99.70;;;;;;5105057;28;20669;-86
2022/08/19 06:07:33;;;;;;;8.23;7.43;;;18.90;99.40;;;;;;5099750;28;20205;-86
2022/08/19 06:13:21;;;;;;;8.88;7.97;;;19.20;98.70;;;;;;5104644;28;20313;-86
2022/08/19 06:16:06;;;;;;;9.82;8.40;;;19.20;97.90;;;;;;5100358;28;20647;-86
2022/08/19 06:18:33;;;;;;;9.68;7.97;;;19.10;97.90;;;;;;5094334;28;20200;-86
2022/08/19 06:21:00;;;;;;;9.18;8.25;;;19.10;98.30;;;;;;5093868;28;20689;-86
2022/08/19 06:23:28;;;;;;;9.40;8.43;;;19.10;98.60;;;;;;5095186;28;20188;-86
2022/08/19 06:25:55;;;;;;;9.60;8.63;;;19.10;98.90;;;;;;5096538;28;20200;-86
2022/08/19 06:28:23;;;;;;;11.65;9.60;;;19.00;99.00;;;;;;5111185;28;20204;-86
2022/08/19 06:30:51;;;;;;;12.50;11.20;;;19.00;99.50;;;;;;5107082;28;20203;-86
2022/08/19 06:33:19;;;;;;;11.80;10.05;;;18.90;99.60;;;;;;5113953;28;20728;-87
2022/08/19 06:35:46;;;;;;;15.38;11.15;;;18.80;99.90;;;;;;5116969;28;20199;-87
2022/08/19 06:38:12;;;;;;;11.32;10.02;;;18.80;99.90;;;;;;5113578;28;20506;-87
2022/08/19 06:40:39;;;;;;;11.77;10.57;;;18.80;99.90;;;;;;5108339;28;20292;-87
2022/08/19 06:43:06;;;;;;;12.10;10.70;;;18.80;99.90;;;;;;5114106;28;20218;-86
2022/08/19 06:45:34;;;;;;;14.65;10.20;;;18.70;99.90;;;;;;5112714;28;20218;-86
2022/08/19 06:48:01;;;;;;;11.40;10.20;;;18.70;99.90;;;;;;5107457;28;20250;-86
2022/08/19 06:50:29;;;;;;;13.52;10.75;;;18.70;99.90;;;;;;5114859;28;20214;-87
2022/08/19 06:52:55;;;;;;;11.65;10.45;;;18.80;99.90;;;;;;5113486;28;20282;-86
2022/08/19 06:55:29;;;;;;;15.15;11.73;;;18.80;99.90;;;;;;5115298;28;20200;-87
2022/08/19 06:57:56;;;;;;;12.07;10.05;;;18.90;99.90;;;;;;5114431;28;20211;-86
2022/08/19 07:00:23;;;;;;;12.38;11.07;;;18.90;99.90;;;;;;5114165;28;20749;-86
2022/08/19 07:02:50;;;;;;;13.20;11.55;;;18.90;99.90;;;;;;5114511;28;20211;-86
2022/08/19 07:05:17;;;;;;;12.93;11.63;;;19.00;99.90;;;;;;5117289;27;20307;-86
2022/08/19 07:07:45;;;;;;;12.32;10.98;;;19.00;99.90;;;;;;5114876;28;20203;-86
2022/08/19 07:10:12;;;;;;;13.45;11.95;;;19.00;99.90;;;;;;5103012;27;20208;-86
2022/08/19 07:12:40;;;;;;;13.38;11.05;;;19.10;99.90;;;;;;5114714;28;20210;-86
2022/08/19 07:15:09;;;;;;;13.18;11.88;;;19.10;99.90;;;;;;5113320;28;20227;-84
2022/08/19 07:17:38;;;;;;;14.45;11.73;;;19.30;99.90;;;;;;5117335;28;20253;-86
2022/08/19 07:20:16;;;;;;;12.82;11.48;;;19.40;99.90;;;;;;5106761;28;20226;-86
2022/08/19 07:22:45;;;;;;;13.98;12.48;;;19.50;99.90;;;;;;5114075;28;21573;-86
2022/08/19 07:25:13;;;;;;;15.77;12.73;;;19.60;99.80;;;;;;5102926;28;20204;-86
2022/08/19 07:27:39;;;;;;;14.30;12.38;;;19.80;99.80;;;;;;5107699;28;20192;-86
2022/08/19 07:30:22;;;;;;;15.80;14.20;;;19.90;98.90;;;;;;5102927;28;20200;-86
2022/08/19 07:32:50;;;;;;;16.25;14.55;;;19.90;98.60;;;;;;5118617;28;20225;-84
2022/08/19 07:35:19;;;;;;;13.90;12.50;;;19.90;98.30;;;;;;5119345;28;20216;-84
2022/08/19 07:37:47;;;;;;;15.50;13.98;;;20.00;98.60;;;;;;5118375;28;20214;-84
2022/08/19 07:40:14;;;;;;;15.63;14.02;;;20.00;98.40;;;;;;5118556;28;20219;-84
2022/08/19 07:42:42;;;;;;;16.60;14.40;;;20.20;98.10;;;;;;5116223;28;20206;-85
2022/08/19 07:45:10;;;;;;;13.98;12.60;;;20.20;98.10;;;;;;5111160;28;20219;-85
2022/08/19 07:47:36;;;;;;;16.05;13.43;;;20.10;98.50;;;;;;5114272;28;20207;-85
2022/08/19 07:50:06;;;;;;;15.43;13.10;;;20.00;98.30;;;;;;5113699;28;20581;-85
2022/08/19 07:52:34;;;;;;;18.00;14.30;;;20.10;98.10;;;;;;5110094;28;20196;-85
2022/08/19 07:55:08;;;;;;;17.27;15.50;;;20.10;98.10;;;;;;5115395;28;20199;-85
2022/08/19 07:57:35;;;;;;;16.25;14.55;;;19.90;98.10;;;;;;5113865;28;20203;-85
2022/08/19 08:00:01;;;;;;;19.65;16.90;;;19.80;98.90;;;;;;5108518;28;20681;-85
2022/08/19 08:02:28;;;;;;;18.35;15.05;;;19.70;98.90;;;;;;5113726;28;20214;-85
2022/08/19 08:10:30;;;;;;;18.67;16.65;;;19.90;99.00;;;;;;5107136;28;20227;-85
2022/08/19 08:12:57;;;;;;;18.02;15.13;;;19.90;98.40;;;;;;5113473;28;20203;-85
2022/08/19 08:15:24;;;;;;;16.80;15.00;;;20.00;98.40;;;;;;5115482;28;20192;-85
2022/08/19 08:17:50;;;;;;;16.77;14.88;;;20.00;98.20;;;;;;5114103;28;20202;-85
2022/08/19 08:20:34;;;;;;;16.50;14.75;;;20.00;98.10;;;;;;5115426;28;20192;-85
2022/08/19 08:25:48;;;;;;;16.20;14.20;;;20.00;98.10;;;;;;5110814;28;20203;-85
2022/08/19 08:28:17;;;;;;;17.15;14.20;;;19.90;98.10;;;;;;5107872;28;20705;-85
2022/08/19 08:30:45;;;;;;;18.02;14.95;;;19.90;98.40;;;;;;5107946;28;20208;-85
2022/08/19 08:33:13;;;;;;;18.58;16.17;;;19.90;98.50;;;;;;5096181;28;20788;-85
2022/08/19 08:35:42;;;;;;;25.27;21.63;;;19.90;98.50;;;;;;5109244;28;20204;-85
2022/08/19 08:38:10;;;;;;;23.92;21.40;;;20.00;98.50;;;;;;5115713;28;20290;-85
2022/08/19 08:40:45;;;;;;;21.27;16.77;;;19.90;98.60;;;;;;5110687;28;20219;-85
2022/08/19 08:43:22;;;;;;;18.83;16.88;;;19.80;98.70;;;;;;5096976;28;20278;-84
2022/08/19 08:45:55;;;;;;;21.15;18.00;;;19.60;99.30;;;;;;5107763;28;20220;-85
2022/08/19 08:48:37;;;;;;;22.30;18.40;;;19.60;99.60;;;;;;5113081;28;20207;-85
2022/08/19 08:51:08;;;;;;;18.83;16.38;;;19.60;99.60;;;;;;5103800;28;20201;-85
2022/08/19 08:53:36;;;;;;;19.45;17.25;;;19.60;99.30;;;;;;5110147;28;20659;-85
2022/08/19 08:56:17;;;;;;;17.60;15.75;;;19.60;99.50;;;;;;5115961;28;20659;-85
2022/08/19 08:58:55;;;;;;;24.92;17.63;;;19.50;99.50;;;;;;5111733;28;20196;-85
2022/08/19 09:01:22;;;;;;;17.10;15.30;;;19.50;99.70;;;;;;5114351;28;20219;-85
2022/08/19 09:03:49;;;;;;;19.05;16.33;;;19.40;99.90;;;;;;5114885;28;20200;-85
2022/08/19 09:06:26;;;;;;;21.92;16.85;;;19.40;99.90;;;;;;5116063;28;20199;-85
2022/08/19 09:09:03;;;;;;;20.33;16.38;;;19.40;99.90;;;;;;5112109;28;20655;-85
2022/08/19 09:11:45;;;;;;;19.48;16.85;;;19.30;99.90;;;;;;5112742;28;20230;-85
2022/08/19 09:14:20;;;;;;;19.17;16.95;;;19.30;99.90;;;;;;5116413;28;20191;-84
2022/08/19 09:16:48;;;;;;;19.05;15.98;;;19.30;99.90;;;;;;5117618;28;20195;-85
2022/08/19 09:19:15;;;;;;;17.90;15.80;;;19.30;99.90;;;;;;5115894;28;20241;-85
2022/08/19 09:21:46;;;;;;;18.85;16.63;;;19.30;99.90;;;;;;5106952;28;20718;-85
2022/08/19 09:24:13;;;;;;;18.17;16.08;;;19.30;99.90;;;;;;5113007;28;20270;-85
2022/08/19 09:26:40;;;;;;;22.17;17.77;;;19.20;99.90;;;;;;5114779;28;20200;-85
2022/08/19 09:29:08;;;;;;;20.08;17.20;;;19.10;99.90;;;;;;5108438;28;20200;-85
2022/08/19 09:31:37;;;;;;;21.08;18.67;;;19.00;99.90;;;;;;5111500;28;20200;-85
2022/08/19 09:34:05;;;;;;;20.35;17.23;;;19.00;99.90;;;;;;5112154;28;20195;-85
2022/08/19 09:36:35;;;;;;;19.05;16.13;;;19.00;99.90;;;;;;5112973;28;20252;-85
2022/08/19 09:39:03;;;;;;;19.58;16.88;;;19.10;99.90;;;;;;5115192;28;20237;-84
2022/08/19 09:41:36;;;;;;;17.10;15.35;;;19.30;99.90;;;;;;5115121;28;20227;-85
2022/08/19 09:44:14;;;;;;;20.30;16.60;;;19.40;99.90;;;;;;5098910;28;20246;-85
2022/08/19 09:47:38;;;;;;;18.23;15.75;;;19.60;99.90;;;;;;5102640;28;20274;-85
2022/08/19 09:50:31;;;;;;;16.63;14.88;;;19.70;99.90;;;;;;5066338;28;20203;-85
2022/08/19 09:52:58;;;;;;;18.55;14.88;;;20.00;99.90;;;;;;5108209;28;20225;-85
2022/08/19 09:55:26;;;;;;;17.73;14.75;;;20.20;99.70;;;;;;5101918;28;20223;-85
2022/08/19 09:57:55;;;;;;;16.33;14.63;;;20.40;99.50;;;;;;5105311;28;20576;-85
2022/08/19 10:00:22;;;;;;;15.93;14.32;;;20.80;98.50;;;;;;5101341;28;20560;-85
2022/08/19 10:02:48;;;;;;;14.23;12.93;;;21.00;98.30;;;;;;5117860;28;20315;-85
2022/08/19 10:08:01;;;;;;;14.48;13.07;;;21.50;95.40;;;;;;5109408;28;20195;-85
2022/08/19 10:10:28;;;;;;;13.57;12.18;;;21.40;95.10;;;;;;5115005;28;20558;-86
2022/08/19 10:12:55;;;;;;;14.30;12.73;;;21.30;96.00;;;;;;5106988;28;20195;-85
2022/08/19 10:15:22;;;;;;;12.98;11.73;;;21.40;96.10;;;;;;5117200;28;20234;-85
2022/08/19 10:17:49;;;;;;;12.57;11.35;;;21.70;96.40;;;;;;5112800;28;20623;-84
2022/08/19 10:20:17;;;;;;;13.35;11.77;;;21.70;95.50;;;;;;5112403;28;20235;-84
2022/08/19 10:22:45;;;;;;;11.90;10.77;;;21.80;95.20;;;;;;5117356;28;20571;-84
2022/08/19 10:25:17;;;;;;;12.88;11.68;;;22.00;94.10;;;;;;5116230;28;20247;-85
2022/08/19 10:27:46;;;;;;;12.35;11.05;;;22.30;93.20;;;;;;5117514;28;20677;-84
2022/08/19 10:30:14;;;;;;;13.90;12.60;;;22.50;92.70;;;;;;5116011;28;20197;-84
2022/08/19 10:32:41;;;;;;;13.18;11.77;;;22.50;92.70;;;;;;5111397;28;20199;-82
2022/08/19 10:35:08;;;;;;;12.98;11.63;;;22.60;92.80;;;;;;5119094;28;20243;-82
2022/08/19 10:37:37;;;;;;;12.20;10.70;;;22.90;92.50;;;;;;5112876;28;20192;-82
2022/08/19 10:40:07;;;;;;;11.07;9.93;;;23.50;90.10;;;;;;5117193;28;20253;-83
2022/08/19 10:42:34;;;;;;;12.00;10.65;;;23.90;87.10;;;;;;5114488;28;20208;-83
2022/08/19 10:45:01;;;;;;;11.27;10.23;;;24.20;80.50;;;;;;5102739;28;20217;-83
2022/08/19 10:47:27;;;;;;;14.73;11.85;;;24.40;80.50;;;;;;5102011;28;20197;-83
2022/08/19 10:52:43;;;;;;;12.95;11.75;;;24.30;79.00;;;;;;5121005;28;20202;-83
2022/08/19 10:57:54;;;;;;;11.55;10.35;;;24.40;83.20;;;;;;5113305;28;20223;-83
2022/08/19 11:00:22;;;;;;;11.45;10.35;;;24.30;83.40;;;;;;5117365;28;20207;-83
2022/08/19 11:02:49;;;;;;;11.65;10.55;;;24.10;83.80;;;;;;5109485;28;20220;-83
2022/08/19 11:05:17;;;;;;;12.75;11.55;;;23.80;83.50;;;;;;5120510;28;20200;-83
2022/08/19 11:07:51;;;;;;;12.25;11.05;;;23.40;83.20;;;;;;5117898;28;20207;-83
2022/08/19 11:10:23;;;;;;;12.55;11.32;;;23.10;85.20;;;;;;5107997;28;20200;-81
2022/08/19 11:12:52;;;;;;;11.38;10.27;;;22.90;87.20;;;;;;5120155;28;20210;-81
2022/08/19 11:15:23;;;;;;;10.85;9.77;;;22.90;87.20;;;;;;5116731;28;20207;-81
2022/08/19 11:17:52;;;;;;;11.00;9.90;;;22.80;90.30;;;;;;5119900;28;20192;-81
2022/08/19 11:20:23;;;;;;;9.70;8.80;;;22.70;91.00;;;;;;5113965;28;20219;-81
2022/08/19 11:22:53;;;;;;;9.32;7.80;;;22.70;91.40;;;;;;5122090;28;20695;-81
2022/08/19 11:25:20;;;;;;;7.95;7.22;;;23.00;90.50;;;;;;5109891;28;20200;-81
2022/08/19 11:27:50;;;;;;;6.50;5.90;;;23.70;87.80;;;;;;5099936;28;20200;-81
2022/08/19 11:30:28;;;;;;;7.55;6.85;;;24.30;82.20;;;;;;5120787;28;20245;-81
2022/08/19 11:32:55;;;;;;;7.75;7.05;;;24.80;75.90;;;;;;5116146;28;20192;-81
2022/08/19 11:35:34;;;;;;;8.27;7.55;;;24.60;73.80;;;;;;5112635;28;20260;-81
2022/08/19 11:38:06;;;;;;;8.05;7.35;;;24.50;71.80;;;;;;5107982;28;20263;-81
2022/08/19 11:40:33;;;;;;;8.55;7.75;;;24.10;77.80;;;;;;5121061;28;20188;-81
2022/08/19 11:42:59;;;;;;;9.32;8.43;;;24.00;78.60;;;;;;5113102;28;20273;-82
2022/08/19 11:45:29;;;;;;;9.80;8.82;;;23.70;80.70;;;;;;5115251;28;20219;-80
2022/08/19 11:47:55;;;;;;;9.32;8.48;;;23.50;83.30;;;;;;5114007;28;20294;-82
2022/08/19 11:50:24;;;;;;;9.45;8.32;;;23.30;80.90;;;;;;5119537;28;20206;-84
2022/08/19 11:52:51;;;;;;;8.50;7.72;;;23.00;81.00;;;;;;5113883;28;20208;-84
2022/08/19 11:55:30;;;;;;;9.18;8.30;;;22.80;84.40;;;;;;5107967;28;20220;-84
2022/08/19 11:57:57;;;;;;;8.43;7.53;;;22.60;84.50;;;;;;5107909;28;20218;-84
2022/08/19 12:00:24;;;;;;;8.05;6.07;;;22.50;87.60;;;;;;5107863;28;20569;-84
2022/08/19 12:02:52;;;;;;;5.10;4.60;;;22.50;86.80;;;;;;5115958;28;20673;-84
2022/08/19 12:05:22;;;;;;;5.65;5.07;;;22.60;82.70;;;;;;5114865;28;20212;-83
2022/08/19 12:07:49;;;;;;;5.30;4.90;;;22.70;82.80;;;;;;5114444;28;20644;-83
2022/08/19 12:10:16;;;;;;;4.60;4.20;;;22.60;82.70;;;;;;5120052;28;20279;-83
2022/08/19 12:12:48;;;;;;;8.48;4.35;;;22.50;84.70;;;;;;5119639;28;20204;-83
2022/08/19 12:15:16;;;;;;;4.22;3.83;;;22.40;86.40;;;;;;5122926;28;20192;-83
2022/08/19 12:17:46;;;;;;;3.97;3.60;;;22.40;86.80;;;;;;5117783;27;20204;-83
2022/08/19 12:20:15;;;;;;;2.83;2.60;;;22.30;86.60;;;;;;5120054;28;20282;-83
2022/08/19 12:22:48;;;;;;;3.10;2.90;;;22.30;84.80;;;;;;5121588;28;20250;-83
2022/08/19 12:25:22;;;;;;;2.10;2.00;;;22.30;85.60;;;;;;5122291;28;20274;-83
2022/08/19 12:27:51;;;;;;;2.28;2.08;;;22.20;86.50;;;;;;5119579;28;20241;-84
2022/08/19 12:30:22;;;;;;;2.10;1.95;;;22.10;88.30;;;;;;5103867;28;20196;-84
2022/08/19 12:32:50;;;;;;;2.20;1.80;;;22.10;87.10;;;;;;5107839;28;20555;-84
2022/08/19 12:35:19;;;;;;;1.90;1.80;;;22.10;89.00;;;;;;5117247;28;20267;-84
2022/08/19 12:37:47;;;;;;;1.90;1.80;;;22.20;87.70;;;;;;5111726;28;20196;-84
2022/08/19 12:40:17;;;;;;;1.50;1.40;;;22.50;84.10;;;;;;5117209;28;20537;-84
2022/08/19 12:42:44;;;;;;;3.03;1.70;;;22.30;84.90;;;;;;5115400;28;20227;-84
2022/08/19 12:45:14;;;;;;;2.13;1.80;;;22.30;85.40;;;;;;5115264;28;20227;-84
2022/08/19 12:47:41;;;;;;;2.95;1.48;;;22.50;82.70;;;;;;5114278;28;20200;-84
2022/08/19 12:50:09;;;;;;;1.50;1.40;;;22.80;81.00;;;;;;5115160;28;20204;-84
2022/08/19 12:52:37;;;;;;;1.83;1.60;;;23.00;80.60;;;;;;5116755;28;20217;-84
2022/08/19 12:55:08;;;;;;;1.70;1.60;;;23.00;80.20;;;;;;5115165;28;20200;-84
2022/08/19 12:57:37;;;;;;;6.00;2.88;;;23.10;79.90;;;;;;5114827;28;20650;-84
2022/08/19 13:00:09;;;;;;;1.63;1.52;;;23.10;79.40;;;;;;5114918;28;20199;-84
2022/08/19 13:02:45;;;;;;;2.83;2.13;;;23.30;77.80;;;;;;5112940;28;20220;-84
2022/08/19 13:05:15;;;;;;;2.00;1.83;;;23.20;77.10;;;;;;5114850;27;20204;-84
2022/08/19 13:07:43;;;;;;;1.40;1.30;;;23.40;75.90;;;;;;5112517;28;20214;-84
2022/08/19 13:10:12;;;;;;;1.60;1.50;;;23.60;74.10;;;;;;5113418;28;20199;-84
2022/08/19 13:15:52;;;;;;;3.08;2.42;;;23.60;74.90;;;;;;5111922;28;20264;-84
2022/08/19 13:18:21;;;;;;;1.60;1.50;;;23.50;70.40;;;;;;5114268;28;20253;-84
2022/08/19 13:20:47;;;;;;;2.47;1.85;;;23.40;71.30;;;;;;5112027;28;20203;-85
2022/08/19 13:23:14;;;;;;;3.45;2.50;;;23.50;71.30;;;;;;5107409;28;20219;-83
2022/08/19 13:25:41;;;;;;;3.60;1.85;;;23.70;68.60;;;;;;5104071;28;20197;-83